Time;durP1;ratioP1;P1;durP2;ratioP2;P2;SDS_P1;SDS_P2;PMS_P1;PMS_P2;Temp;Humidity;BMP_temperature;BMP_pressure;BME280_temperature;BME280_humidity;BME280_pressure;Samples;Min_cycle;Max_cycle;Signal;HPM_P1;HPM_P2
2023/04/21 04:51:31;;;;;;;12.13;8.00;;;9.10;1.00;;;;;;5197062;23;20242;-93
2023/04/21 04:53:58;;;;;;;13.47;8.17;;;9.10;1.00;;;;;;5049170;28;20208;-93
2023/04/21 04:56:25;;;;;;;9.87;7.43;;;9.10;1.00;;;;;;5051927;28;20192;-93
2023/04/21 04:58:51;;;;;;;9.63;6.90;;;9.20;1.00;;;;;;5038862;28;20220;-93
2023/04/21 05:01:18;;;;;;;11.57;7.50;;;9.20;1.00;;;;;;5043076;28;20195;-95
2023/04/21 05:03:45;;;;;;;14.73;7.90;;;9.30;1.00;;;;;;5048274;28;20200;-92
2023/04/21 05:06:13;;;;;;;11.97;7.70;;;9.30;1.00;;;;;;5044441;28;20202;-95
2023/04/21 05:11:16;;;;;;;11.23;7.33;;;9.50;1.00;;;;;;5246388;23;20237;-95
2023/04/21 05:13:43;;;;;;;14.90;8.30;;;9.60;99.90;;;;;;5035088;28;20297;-96
2023/04/21 05:16:10;;;;;;;11.57;7.63;;;9.70;99.90;;;;;;5037678;28;20214;-95
2023/04/21 05:18:37;;;;;;;10.37;7.40;;;9.70;99.90;;;;;;5037472;28;20240;-94
2023/04/21 05:21:04;;;;;;;11.00;7.23;;;9.80;99.90;;;;;;5035480;28;22091;-95
2023/04/21 05:23:31;;;;;;;9.97;7.93;;;9.90;99.90;;;;;;5038452;28;20196;-94
2023/04/21 05:25:57;;;;;;;13.93;7.50;;;9.90;43.00;;;;;;5039382;28;20293;-96
2023/04/21 05:28:28;;;;;;;12.53;7.27;;;10.00;13.80;;;;;;5041513;28;20194;-96
2023/04/21 05:30:58;;;;;;;12.30;7.43;;;10.00;1.00;;;;;;5048533;28;20656;-95
2023/04/21 05:33:26;;;;;;;13.37;7.90;;;10.10;1.00;;;;;;5052085;28;20175;-96
2023/04/21 05:35:55;;;;;;;10.93;7.17;;;10.10;1.00;;;;;;5050665;28;20190;-96
2023/04/21 05:38:22;;;;;;;11.30;7.80;;;10.20;1.00;;;;;;5433985;22;20257;-95
2023/04/21 05:40:54;;;;;;;11.70;7.50;;;10.30;1.00;;;;;;5036808;28;20253;-95
2023/04/21 05:43:21;;;;;;;11.23;7.30;;;10.40;1.00;;;;;;5017061;28;20277;-95
2023/04/21 05:45:49;;;;;;;10.53;6.67;;;10.40;1.00;;;;;;5021520;28;20201;-96
2023/04/21 05:48:16;;;;;;;13.53;8.00;;;10.50;1.00;;;;;;5018295;28;20259;-96
2023/04/21 05:50:43;;;;;;;11.37;6.90;;;10.60;1.00;;;;;;5018227;28;20267;-96
2023/04/21 05:53:10;;;;;;;9.00;7.10;;;10.70;1.00;;;;;;5016695;28;20201;-95
2023/04/21 05:55:38;;;;;;;9.63;7.57;;;10.80;1.00;;;;;;5015302;28;20204;-96
2023/04/21 05:58:05;;;;;;;11.43;7.37;;;10.90;1.00;;;;;;5016969;28;20215;-95
2023/04/21 06:00:31;;;;;;;9.80;7.50;;;11.00;1.00;;;;;;5015041;28;20549;-94
2023/04/21 06:03:00;;;;;;;11.43;7.17;;;11.10;1.00;;;;;;5016393;28;20288;-95
2023/04/21 06:05:27;;;;;;;9.03;7.00;;;11.20;1.00;;;;;;5021455;28;20272;-96
2023/04/21 06:07:54;;;;;;;10.10;7.17;;;11.30;99.90;;;;;;5021930;28;20225;-96
2023/04/21 06:10:21;;;;;;;11.83;7.20;;;11.30;99.90;;;;;;5008024;28;20685;-96
2023/04/21 06:12:48;;;;;;;8.70;6.80;;;11.40;99.90;;;;;;5008329;28;20235;-96
2023/04/21 06:15:15;;;;;;;10.07;7.20;;;11.50;99.90;;;;;;5016439;28;20249;-96
2023/04/21 06:17:42;;;;;;;10.03;7.07;;;11.60;99.90;;;;;;5019026;28;20221;-95
2023/04/21 06:20:11;;;;;;;11.93;6.50;;;11.80;99.90;;;;;;5273594;22;20236;-96
2023/04/21 06:25:09;;;;;;;10.40;7.03;;;12.00;99.90;;;;;;5107041;23;20227;-96
2023/04/21 06:27:36;;;;;;;10.03;7.37;;;12.00;99.90;;;;;;5061196;28;20194;-96
2023/04/21 06:30:03;;;;;;;12.13;6.93;;;12.10;34.10;;;;;;5321332;22;20255;-95
2023/04/21 06:40:16;;;;;;;11.17;6.77;;;12.50;1.00;;;;;;5231370;23;20234;-96
2023/04/21 06:45:18;;;;;;;10.50;7.30;;;12.70;1.00;;;;;;5264655;23;20243;-96
2023/04/21 06:50:20;;;;;;;8.73;6.63;;;12.90;1.00;;;;;;5248663;23;20228;-96
2023/04/21 06:52:47;;;;;;;10.20;6.23;;;13.00;1.00;;;;;;5019169;28;20192;-96
2023/04/21 06:55:15;;;;;;;10.87;6.30;;;13.10;1.00;;;;;;5032813;28;20268;-96
2023/04/21 06:57:42;;;;;;;10.70;6.57;;;13.20;1.00;;;;;;5027873;28;20200;-96
2023/04/21 07:00:11;;;;;;;7.63;6.23;;;13.30;1.00;;;;;;5031995;28;20263;-96
2023/04/21 07:02:38;;;;;;;8.60;6.53;;;13.30;1.00;;;;;;5024646;28;20208;-96
2023/04/21 07:05:05;;;;;;;10.83;6.43;;;13.40;1.00;;;;;;5028480;28;20194;-95
2023/04/21 07:07:32;;;;;;;9.50;5.80;;;13.50;1.00;;;;;;5034836;28;20215;-96
2023/04/21 07:09:59;;;;;;;9.67;6.33;;;13.60;1.00;;;;;;5012414;28;20204;-96
2023/04/21 07:12:27;;;;;;;10.87;6.17;;;13.70;1.00;;;;;;5022773;28;20241;-96
2023/04/21 07:14:54;;;;;;;10.27;6.93;;;13.70;1.00;;;;;;5017579;28;20220;-96
2023/04/21 07:17:21;;;;;;;9.10;6.50;;;13.80;1.00;;;;;;5035403;28;20236;-96
2023/04/21 07:19:50;;;;;;;7.57;6.10;;;13.90;1.00;;;;;;5201054;23;20232;-96
2023/04/21 07:22:17;;;;;;;9.00;6.53;;;14.00;1.00;;;;;;5040970;28;20221;-96
2023/04/21 07:24:44;;;;;;;7.27;5.70;;;14.10;1.00;;;;;;5039687;28;20223;-96
2023/04/21 07:27:11;;;;;;;8.77;6.00;;;14.20;1.00;;;;;;5046001;28;20257;-95
2023/04/21 07:29:39;;;;;;;8.03;5.63;;;14.20;1.00;;;;;;5024330;28;20234;-96
2023/04/21 07:55:25;;;;;;;8.52;5.40;;;15.30;99.90;;;;;;6094497;22;20188;-87
2023/04/21 08:26:24;;;;;;;6.68;4.95;;;16.40;1.00;;;;;;5628399;22;20231;-96
2023/04/21 08:28:51;;;;;;;7.15;5.00;;;16.50;1.00;;;;;;5047855;28;20185;-96
2023/04/21 08:34:00;;;;;;;8.80;4.95;;;16.70;1.00;;;;;;5749953;22;20229;-96
2023/04/21 08:39:02;;;;;;;5.95;4.35;;;16.90;1.00;;;;;;5420419;23;20207;-96
2023/04/21 08:46:44;;;;;;;7.78;4.50;;;17.20;1.00;;;;;;5511731;22;20237;-96
2023/04/21 10:35:15;;;;;;;8.18;3.78;;;18.80;1.00;;;;;;5045473;28;20273;-96
2023/04/21 10:48:13;;;;;;;6.75;3.63;;;19.00;1.00;;;;;;5489321;22;20466;-95
2023/04/21 10:50:43;;;;;;;5.25;3.28;;;18.90;1.00;;;;;;5030828;28;20220;-93
2023/04/21 10:53:11;;;;;;;5.10;3.05;;;18.90;1.00;;;;;;5027124;28;20195;-96
2023/04/21 10:55:41;;;;;;;3.88;3.00;;;19.00;1.00;;;;;;5267483;23;20222;-96
2023/04/21 10:58:09;;;;;;;6.22;3.20;;;19.00;1.00;;;;;;5040537;28;20190;-96
2023/04/21 11:00:38;;;;;;;3.92;2.80;;;19.00;1.00;;;;;;5036263;28;20245;-96
2023/04/21 11:03:06;;;;;;;7.28;3.17;;;19.00;1.00;;;;;;5036453;28;20209;-96
2023/04/21 11:05:37;;;;;;;4.53;3.10;;;19.00;1.00;;;;;;5035302;28;20230;-95
2023/04/21 11:08:11;;;;;;;3.60;2.95;;;19.10;1.00;;;;;;5027788;28;20232;-95
2023/04/21 11:10:50;;;;;;;5.00;2.83;;;19.00;1.00;;;;;;5030611;28;20205;-96
2023/04/21 11:13:17;;;;;;;3.40;2.60;;;18.90;1.00;;;;;;5027172;28;20265;-96
2023/04/21 11:20:52;;;;;;;4.40;2.90;;;18.90;1.00;;;;;;5253820;23;20234;-96
2023/04/21 11:23:20;;;;;;;4.03;2.88;;;19.00;1.00;;;;;;5030629;28;20195;-95
2023/04/21 11:25:47;;;;;;;5.38;2.90;;;19.00;1.00;;;;;;5019439;28;20217;-96
2023/04/21 11:28:20;;;;;;;5.13;3.15;;;19.10;1.00;;;;;;5035209;28;20257;-96
2023/04/21 11:30:47;;;;;;;6.00;2.80;;;19.20;1.00;;;;;;5035867;28;20201;-96
2023/04/21 11:33:14;;;;;;;5.57;3.10;;;19.20;1.00;;;;;;5018434;28;20211;-95
2023/04/21 11:35:41;;;;;;;4.68;2.83;;;19.20;1.00;;;;;;5023033;28;20205;-96
2023/04/21 11:38:09;;;;;;;4.72;3.15;;;19.30;1.00;;;;;;5039349;28;20257;-95
2023/04/21 11:40:46;;;;;;;5.78;3.00;;;19.30;1.00;;;;;;5048637;28;20213;-96
2023/04/21 11:43:13;;;;;;;3.88;3.03;;;19.30;1.00;;;;;;5037198;28;20195;-96
2023/04/21 11:45:40;;;;;;;6.82;2.92;;;19.30;1.00;;;;;;5042085;28;20193;-96
2023/04/21 11:48:14;;;;;;;5.35;3.15;;;19.30;1.00;;;;;;5032875;28;20196;-94
2023/04/21 11:50:47;;;;;;;4.90;2.78;;;19.30;1.00;;;;;;5020434;28;20607;-96
2023/04/21 11:53:14;;;;;;;5.78;3.05;;;19.20;1.00;;;;;;5040157;28;20259;-95
2023/04/21 11:55:43;;;;;;;5.20;2.67;;;19.20;1.00;;;;;;5038006;28;20197;-95
2023/04/21 11:58:15;;;;;;;5.72;2.63;;;19.20;1.00;;;;;;5049482;28;20237;-95
2023/04/21 12:00:44;;;;;;;3.55;2.80;;;19.20;1.00;;;;;;5048615;28;20210;-96
2023/04/21 12:03:14;;;;;;;5.53;2.80;;;19.20;1.00;;;;;;5045876;28;20202;-96
2023/04/21 12:05:45;;;;;;;5.93;2.55;;;19.20;1.00;;;;;;5050567;28;20308;-96
2023/04/21 12:08:21;;;;;;;4.45;2.67;;;19.30;1.00;;;;;;5040628;28;20181;-96
2023/04/21 12:10:52;;;;;;;2.92;2.53;;;19.40;1.00;;;;;;5032212;28;20253;-96
2023/04/21 12:13:24;;;;;;;4.00;2.60;;;19.50;1.00;;;;;;5024584;28;20194;-95
2023/04/21 12:15:51;;;;;;;3.30;2.63;;;19.50;1.00;;;;;;5040396;28;20189;-95
2023/04/21 12:21:17;;;;;;;4.63;2.97;;;19.50;1.00;;;;;;5644783;23;20236;-96
2023/04/21 12:23:44;;;;;;;3.97;2.60;;;19.60;1.00;;;;;;5093411;23;20227;-96
2023/04/21 12:26:11;;;;;;;5.40;2.70;;;19.60;1.00;;;;;;4995963;28;20183;-96
2023/04/21 12:28:40;;;;;;;4.55;2.60;;;19.60;1.00;;;;;;4990863;28;20283;-96
2023/04/21 12:31:07;;;;;;;4.15;2.80;;;19.60;1.00;;;;;;4992904;28;20211;-96
2023/04/21 12:33:34;;;;;;;5.30;2.58;;;19.60;99.90;;;;;;4990905;28;20241;-96
2023/04/21 12:36:01;;;;;;;5.05;2.42;;;19.60;1.00;;;;;;4987242;28;20266;-96
2023/04/21 12:38:28;;;;;;;3.00;2.55;;;19.60;1.00;;;;;;4994845;28;20223;-96
2023/04/21 12:40:54;;;;;;;5.60;2.78;;;19.60;1.00;;;;;;4973919;28;20219;-96
2023/04/21 12:43:21;;;;;;;5.13;2.83;;;19.60;1.00;;;;;;4973716;28;20224;-96
2023/04/21 12:45:51;;;;;;;4.35;2.67;;;19.60;99.90;;;;;;4984182;28;20242;-95
2023/04/21 12:48:19;;;;;;;3.63;2.50;;;19.60;1.00;;;;;;5257326;23;20201;-96
2023/04/21 13:03:54;;;;;;;5.13;2.45;;;19.70;1.00;;;;;;801341;23;20388;-96
2023/04/21 13:06:20;;;;;;;4.95;2.60;;;19.70;1.00;;;;;;5093294;23;20314;-96
2023/04/21 13:08:48;;;;;;;4.45;2.55;;;19.70;1.00;;;;;;5011247;28;20203;-95
2023/04/21 13:11:14;;;;;;;6.55;2.80;;;19.80;1.00;;;;;;5019358;28;20198;-94
2023/04/21 13:13:41;;;;;;;3.38;2.80;;;19.80;1.00;;;;;;5014024;28;20191;-94
2023/04/21 13:16:08;;;;;;;4.88;2.65;;;19.80;1.00;;;;;;5006080;28;20195;-96
2023/04/21 13:18:36;;;;;;;5.30;2.67;;;19.80;1.00;;;;;;5011668;28;20202;-96
2023/04/21 13:21:05;;;;;;;8.80;2.70;;;19.70;1.00;;;;;;5021993;28;20229;-96
2023/04/21 13:23:32;;;;;;;6.68;2.90;;;19.70;1.00;;;;;;5000832;28;20190;-96
2023/04/21 13:26:00;;;;;;;3.45;2.72;;;19.80;99.90;;;;;;5009028;28;20222;-96
2023/04/21 13:28:27;;;;;;;5.30;2.92;;;19.80;1.00;;;;;;4998639;28;20202;-96
2023/04/21 13:30:54;;;;;;;4.00;2.95;;;19.80;99.90;;;;;;5008930;28;20306;-95
2023/04/21 13:33:21;;;;;;;3.72;2.72;;;19.90;99.90;;;;;;5003875;28;20229;-95
2023/04/21 13:35:49;;;;;;;5.32;2.83;;;19.90;99.90;;;;;;5017403;28;20284;-96
2023/04/21 13:38:17;;;;;;;5.68;2.78;;;19.90;99.90;;;;;;5149664;22;20241;-96
2023/04/21 13:45:57;;;;;;;4.30;2.53;;;19.90;1.00;;;;;;5055336;28;20209;-96
2023/04/21 13:48:25;;;;;;;3.83;2.60;;;19.80;99.90;;;;;;5060052;28;20182;-96
2023/04/21 13:53:29;;;;;;;6.63;2.90;;;19.80;99.90;;;;;;5410504;22;20220;-96
2023/04/21 13:55:58;;;;;;;3.63;2.72;;;19.80;99.90;;;;;;5475546;23;20257;-96
2023/04/21 13:58:25;;;;;;;4.93;3.28;;;19.90;99.90;;;;;;5126490;23;20236;-96
2023/04/21 14:03:19;;;;;;;7.38;2.55;;;19.90;1.00;;;;;;5446032;22;20208;-94
2023/04/21 14:05:46;;;;;;;6.35;2.90;;;20.00;99.90;;;;;;5729821;23;20230;-96
2023/04/21 14:18:50;;;;;;;6.57;3.20;;;19.90;99.90;;;;;;5976091;22;21922;-96
2023/04/21 14:26:28;;;;;;;4.88;3.15;;;20.00;99.90;;;;;;5906476;23;20977;-96
2023/04/21 14:28:59;;;;;;;7.88;2.85;;;20.00;99.90;;;;;;5080690;23;1129384;-96
2023/04/21 14:31:26;;;;;;;4.35;2.75;;;20.10;99.90;;;;;;5050290;28;20424;-96
2023/04/21 14:33:54;;;;;;;3.40;3.00;;;20.10;99.90;;;;;;5136484;23;20230;-96
2023/04/21 14:36:21;;;;;;;5.32;3.00;;;20.10;99.90;;;;;;5030205;28;20217;-96
2023/04/21 14:38:49;;;;;;;5.38;3.30;;;20.10;99.90;;;;;;5242703;23;20237;-96
2023/04/21 14:41:16;;;;;;;4.20;2.95;;;20.20;99.90;;;;;;5095025;23;20257;-96
2023/04/21 14:43:44;;;;;;;4.85;2.92;;;20.20;99.90;;;;;;5077125;23;20287;-96
2023/04/21 14:46:11;;;;;;;6.70;3.03;;;20.10;99.90;;;;;;5437246;22;20205;-94
2023/04/21 14:48:40;;;;;;;3.90;3.03;;;20.20;99.90;;;;;;5053889;28;20197;-96
2023/04/21 15:09:19;;;;;;;6.00;3.50;;;20.20;99.90;;;;;;5311665;23;20210;-96
2023/04/21 15:27:58;;;;;;;5.10;3.40;;;20.00;99.90;;;;;;5253370;23;20224;-96
2023/04/21 15:30:25;;;;;;;8.23;3.63;;;20.00;99.90;;;;;;5028404;28;20244;-96
2023/04/21 15:35:20;;;;;;;4.10;3.13;;;19.90;99.90;;;;;;5035957;28;20691;-94
2023/04/21 15:37:47;;;;;;;4.32;3.22;;;19.90;99.90;;;;;;5111338;23;20230;-93
2023/04/21 15:40:15;;;;;;;7.13;3.60;;;19.80;99.90;;;;;;5185861;23;20243;-96
2023/04/21 15:45:11;;;;;;;5.13;3.35;;;19.60;99.90;;;;;;5067168;28;20201;-96
2023/04/21 15:47:40;;;;;;;4.65;2.88;;;19.60;99.90;;;;;;5467375;23;20256;-96
2023/04/21 15:52:43;;;;;;;5.43;3.22;;;19.50;99.90;;;;;;5234907;23;20233;-96
2023/04/21 15:55:11;;;;;;;5.40;3.30;;;19.40;99.90;;;;;;5043246;28;20252;-96
2023/04/21 15:57:38;;;;;;;4.32;3.20;;;19.40;99.90;;;;;;5041170;28;20260;-95
2023/04/21 16:00:08;;;;;;;5.25;3.10;;;19.40;99.90;;;;;;5050863;28;20213;-95
2023/04/21 16:02:37;;;;;;;6.85;3.28;;;19.40;99.90;;;;;;5055360;28;20215;-96
2023/04/21 16:15:57;;;;;;;3.92;2.97;;;19.30;99.90;;;;;;5137126;23;20222;-96
2023/04/21 16:18:25;;;;;;;3.42;2.90;;;19.20;99.90;;;;;;5040008;28;20233;-95
2023/04/21 16:20:53;;;;;;;5.05;3.10;;;19.30;99.90;;;;;;5048422;28;20244;-96
2023/04/21 16:23:20;;;;;;;6.32;3.15;;;19.30;99.90;;;;;;5046247;28;20173;-96
2023/04/21 16:28:22;;;;;;;3.67;3.13;;;19.20;99.90;;;;;;5377706;23;20999;-84
2023/04/21 16:30:55;;;;;;;6.32;3.30;;;19.10;99.90;;;;;;5234207;23;20186;-95
2023/04/21 16:35:58;;;;;;;5.97;3.42;;;19.00;99.90;;;;;;5201007;23;20255;-95
2023/04/21 16:38:25;;;;;;;5.80;3.55;;;18.90;99.90;;;;;;5027467;28;20221;-95
2023/04/21 16:40:55;;;;;;;4.43;3.22;;;18.70;99.90;;;;;;5028797;28;20218;-96
2023/04/21 16:51:09;;;;;;;6.18;3.58;;;18.50;1.00;;;;;;5380989;23;20272;-96
2023/04/21 16:53:35;;;;;;;4.88;3.30;;;18.40;99.90;;;;;;5048395;28;20189;-95
2023/04/21 16:56:04;;;;;;;8.27;3.50;;;18.40;99.90;;;;;;5083512;23;20229;-96
2023/04/21 16:58:35;;;;;;;5.85;3.10;;;18.40;99.90;;;;;;5206278;23;20229;-96
2023/04/21 17:01:03;;;;;;;7.50;3.47;;;18.40;99.90;;;;;;5032428;28;20229;-96
2023/04/21 17:03:30;;;;;;;5.78;3.50;;;18.40;99.90;;;;;;5025873;28;20193;-95
2023/04/21 17:05:57;;;;;;;7.20;3.58;;;18.50;99.90;;;;;;5016130;28;20300;-93
2023/04/21 17:08:25;;;;;;;6.60;3.42;;;18.50;99.90;;;;;;5015225;28;20799;-94
2023/04/21 17:10:54;;;;;;;5.03;3.17;;;18.60;99.90;;;;;;5015158;28;20196;-94
2023/04/21 17:13:21;;;;;;;5.15;3.90;;;18.70;99.90;;;;;;5015616;28;20202;-94
2023/04/21 17:15:47;;;;;;;5.32;3.83;;;18.70;99.90;;;;;;5015060;28;20222;-94
2023/04/21 17:18:14;;;;;;;6.72;3.45;;;18.70;99.90;;;;;;5014925;28;20202;-94
2023/04/21 17:20:41;;;;;;;5.43;3.28;;;18.80;99.90;;;;;;5015722;28;20695;-93
2023/04/21 17:23:08;;;;;;;5.15;3.17;;;18.80;99.90;;;;;;5016060;28;20660;-95
2023/04/21 17:25:37;;;;;;;6.93;3.47;;;18.80;99.90;;;;;;5014985;28;20201;-93
2023/04/21 17:28:04;;;;;;;4.75;3.70;;;18.80;99.90;;;;;;5015263;28;20194;-90
2023/04/21 17:30:31;;;;;;;7.28;3.67;;;18.60;99.90;;;;;;5014353;28;20562;-90
2023/04/21 17:32:57;;;;;;;4.90;3.45;;;18.20;99.90;;;;;;5014316;28;20550;-90
2023/04/21 17:35:24;;;;;;;8.35;3.30;;;17.80;99.90;;;;;;5014638;28;20681;-91
2023/04/21 17:37:51;;;;;;;5.65;4.03;;;17.50;99.90;;;;;;5014721;28;20292;-92
2023/04/21 17:40:18;;;;;;;5.00;3.63;;;17.30;99.90;;;;;;5021042;28;20218;-90
2023/04/21 17:42:46;;;;;;;4.82;3.90;;;17.00;99.90;;;;;;5016368;28;20190;-90
2023/04/21 17:45:13;;;;;;;3.97;3.50;;;16.80;99.90;;;;;;5021973;28;20200;-89
2023/04/21 17:47:40;;;;;;;7.15;3.75;;;16.60;99.90;;;;;;5019956;28;20194;-89
2023/04/21 17:50:08;;;;;;;6.70;4.07;;;16.40;99.90;;;;;;5020232;28;20197;-90
2023/04/21 17:52:35;;;;;;;4.63;3.33;;;16.20;99.90;;;;;;5027501;28;20198;-91
2023/04/21 17:55:02;;;;;;;5.50;3.33;;;16.00;99.90;;;;;;5017700;28;20293;-89
2023/04/21 17:57:29;;;;;;;6.60;3.65;;;15.90;99.90;;;;;;5017418;28;20198;-89
2023/04/21 17:59:57;;;;;;;5.63;3.90;;;15.70;99.90;;;;;;5020011;28;20228;-89
2023/04/21 18:02:24;;;;;;;10.13;3.60;;;15.60;99.90;;;;;;5027637;28;20248;-88
2023/04/21 18:04:51;;;;;;;4.57;3.72;;;15.40;99.90;;;;;;5038557;28;20197;-91
2023/04/21 18:07:19;;;;;;;5.20;3.85;;;15.30;99.90;;;;;;5024541;28;20207;-90
2023/04/21 18:09:47;;;;;;;5.30;3.95;;;15.10;99.90;;;;;;5021752;28;20305;-90
2023/04/21 18:12:14;;;;;;;5.07;3.72;;;15.00;1.00;;;;;;5025551;28;20202;-93
2023/04/21 18:14:41;;;;;;;5.22;4.07;;;14.80;99.90;;;;;;5021203;28;20254;-94
2023/04/21 18:17:09;;;;;;;6.25;4.22;;;14.60;99.90;;;;;;5025145;28;20197;-92
2023/04/21 18:19:36;;;;;;;6.68;4.57;;;14.40;99.90;;;;;;5022253;28;20201;-92
2023/04/21 18:22:03;;;;;;;5.87;4.47;;;14.20;99.90;;;;;;5024708;28;20222;-93
2023/04/21 18:24:30;;;;;;;6.55;4.10;;;14.00;99.90;;;;;;5019695;28;20196;-92
2023/04/21 18:26:57;;;;;;;5.60;4.10;;;13.80;99.90;;;;;;5024094;28;20654;-91
2023/04/21 18:29:24;;;;;;;7.13;4.03;;;13.60;99.90;;;;;;5026503;28;20196;-91
2023/04/21 18:31:51;;;;;;;5.67;4.30;;;13.50;99.90;;;;;;5017902;28;20694;-91
2023/04/21 18:34:19;;;;;;;5.83;4.10;;;13.30;1.00;;;;;;5016694;28;20197;-92
2023/04/21 18:36:47;;;;;;;7.53;4.57;;;13.20;1.00;;;;;;5022674;28;20255;-91
2023/04/21 18:39:14;;;;;;;5.70;4.20;;;13.10;1.00;;;;;;5026397;28;20223;-91
2023/04/21 18:41:41;;;;;;;4.53;4.00;;;12.90;1.00;;;;;;5028041;28;20215;-92
2023/04/21 18:44:08;;;;;;;5.57;3.80;;;12.80;1.00;;;;;;5029306;28;20205;-91
2023/04/21 18:46:35;;;;;;;4.83;4.10;;;12.70;1.00;;;;;;5026695;28;20203;-91
2023/04/21 18:49:02;;;;;;;6.97;4.40;;;12.70;1.00;;;;;;5035876;28;20186;-89
2023/04/21 18:51:31;;;;;;;5.53;4.47;;;12.60;1.00;;;;;;5030373;28;20545;-89
2023/04/21 18:53:58;;;;;;;6.03;4.40;;;12.50;1.00;;;;;;5040758;28;20199;-89
2023/04/21 18:56:25;;;;;;;7.03;4.40;;;12.40;1.00;;;;;;5031207;28;20692;-89
2023/04/21 18:58:52;;;;;;;5.77;4.20;;;12.30;1.00;;;;;;5026791;28;20250;-90
2023/04/21 19:01:19;;;;;;;7.17;5.07;;;12.20;1.00;;;;;;5023052;28;20589;-90
2023/04/21 19:03:46;;;;;;;8.83;5.07;;;12.20;1.00;;;;;;5029821;28;20200;-90
2023/04/21 19:06:12;;;;;;;6.90;4.67;;;12.10;1.00;;;;;;5021918;28;20239;-90
2023/04/21 19:08:41;;;;;;;7.40;4.37;;;12.10;1.00;;;;;;5035445;28;20577;-89
2023/04/21 19:11:08;;;;;;;5.80;4.10;;;12.00;1.00;;;;;;5027638;28;20207;-89
2023/04/21 19:13:35;;;;;;;5.30;4.70;;;11.90;1.00;;;;;;5028022;28;20197;-89
2023/04/21 19:16:03;;;;;;;8.07;4.73;;;11.80;1.00;;;;;;5023246;28;20197;-89
2023/04/21 19:18:30;;;;;;;10.93;4.70;;;11.80;1.00;;;;;;5022815;28;20281;-89
2023/04/21 19:20:57;;;;;;;5.90;4.27;;;11.70;1.00;;;;;;5024056;28;20625;-90
2023/04/21 19:23:24;;;;;;;7.27;4.57;;;11.60;1.00;;;;;;5019597;28;20203;-89
2023/04/21 19:25:53;;;;;;;6.30;4.13;;;11.60;1.00;;;;;;5032213;28;20200;-90
2023/04/21 19:28:20;;;;;;;5.00;4.40;;;11.60;1.00;;;;;;5023986;28;20292;-89
2023/04/21 19:30:48;;;;;;;7.63;4.77;;;11.60;1.00;;;;;;5024585;28;20278;-89
2023/04/21 19:33:15;;;;;;;5.53;4.30;;;11.50;1.00;;;;;;5017268;28;20616;-90
2023/04/21 19:35:42;;;;;;;6.40;4.80;;;11.40;1.00;;;;;;5025725;28;20566;-90
2023/04/21 19:38:09;;;;;;;8.90;4.77;;;11.30;1.00;;;;;;5025160;28;20196;-89
2023/04/21 19:40:35;;;;;;;8.47;5.00;;;11.20;1.00;;;;;;5022073;28;20288;-89
2023/04/21 19:43:04;;;;;;;10.03;4.93;;;11.20;1.00;;;;;;5033458;28;20210;-89
2023/04/21 19:45:31;;;;;;;9.60;5.23;;;11.20;1.00;;;;;;5022241;28;20206;-90
